createdAt,value
2023-02-07T00:01:19.071Z,9.13
2023-02-07T00:03:48.328Z,8.75
2023-02-07T00:06:18.474Z,10.00
2023-02-07T00:08:46.376Z,9.55
2023-02-07T00:11:17.018Z,9.00
2023-02-07T00:13:45.253Z,8.45
2023-02-07T00:16:13.558Z,8.65
2023-02-07T00:18:42.885Z,8.37
2023-02-07T00:21:13.150Z,9.05
2023-02-07T00:23:41.699Z,8.48
2023-02-07T00:26:10.203Z,8.55
2023-02-07T00:28:38.051Z,7.78
2023-02-07T00:31:07.616Z,8.32
2023-02-07T00:33:35.771Z,8.60
2023-02-07T00:36:07.561Z,7.07
2023-02-07T00:38:35.752Z,8.70
2023-02-07T00:41:03.607Z,8.48
2023-02-07T00:43:33.562Z,8.85
2023-02-07T00:46:04.031Z,8.57
2023-02-07T00:48:32.631Z,8.68
2023-02-07T00:51:01.171Z,9.43
2023-02-07T00:53:30.633Z,8.65
2023-02-07T00:55:58.774Z,8.65
2023-02-07T00:58:26.863Z,9.82
2023-02-07T01:00:54.835Z,9.60
2023-02-07T01:03:22.668Z,11.15
2023-02-07T01:05:51.100Z,9.10
2023-02-07T01:08:18.925Z,10.25
2023-02-07T01:10:48.260Z,9.02
2023-02-07T01:15:46.191Z,9.40
2023-02-07T01:18:15.998Z,9.68
2023-02-07T01:20:43.999Z,9.07
2023-02-07T01:23:13.567Z,9.52
2023-02-07T01:25:44.002Z,9.68
2023-02-07T01:28:14.125Z,10.18
2023-02-07T01:30:42.759Z,9.20
2023-02-07T01:33:10.998Z,8.32
2023-02-07T01:35:39.775Z,9.25
2023-02-07T01:38:07.953Z,8.02
2023-02-07T01:40:37.747Z,9.05
2023-02-07T01:43:07.269Z,8.30
2023-02-07T01:45:38.261Z,8.40
2023-02-07T01:48:09.852Z,8.23
2023-02-07T01:50:39.055Z,9.07
2023-02-07T01:53:08.353Z,8.63
2023-02-07T01:55:39.398Z,8.23
2023-02-07T01:58:08.133Z,8.38
2023-02-07T02:03:08.567Z,8.00
2023-02-07T02:05:37.629Z,9.15
2023-02-07T02:10:51.829Z,8.43
2023-02-07T02:13:27.084Z,8.70
2023-02-07T02:16:02.691Z,7.85
2023-02-07T02:18:55.887Z,8.65
2023-02-07T02:22:06.233Z,8.82
2023-02-07T02:25:10.405Z,10.18
2023-02-07T02:27:56.945Z,9.05
2023-02-07T02:30:40.348Z,10.27
2023-02-07T02:33:35.966Z,9.65
2023-02-07T02:36:11.911Z,8.60
2023-02-07T02:38:46.486Z,10.10
2023-02-07T02:41:18.652Z,9.32
2023-02-07T02:43:48.628Z,9.90
2023-02-07T02:46:21.139Z,10.63
2023-02-07T02:48:51.429Z,10.13
2023-02-07T02:51:19.202Z,9.85
2023-02-07T02:53:57.644Z,9.35
2023-02-07T02:56:58.086Z,10.68
2023-02-07T02:59:52.345Z,9.27
2023-02-07T03:02:31.081Z,11.10
2023-02-07T03:05:15.599Z,9.10
2023-02-07T03:07:53.022Z,8.70
2023-02-07T03:10:32.330Z,9.50
2023-02-07T03:13:10.671Z,11.15
2023-02-07T03:15:50.440Z,9.90
2023-02-07T03:18:22.974Z,9.43
2023-02-07T03:20:58.115Z,9.85
2023-02-07T03:23:26.425Z,10.48
2023-02-07T03:25:57.486Z,9.50
2023-02-07T03:28:28.669Z,9.52
2023-02-07T03:31:00.250Z,9.30
2023-02-07T03:33:28.772Z,8.55
2023-02-07T03:36:03.409Z,9.77
2023-02-07T03:38:31.583Z,8.75
2023-02-07T03:41:02.727Z,8.07
2023-02-07T03:43:33.187Z,8.13
2023-02-07T03:46:01.131Z,8.65
2023-02-07T03:48:28.928Z,7.75
2023-02-07T03:50:58.112Z,7.88
2023-02-07T03:53:27.048Z,6.55
2023-02-07T03:55:54.871Z,7.95
2023-02-07T03:58:22.666Z,7.60
2023-02-07T04:00:50.509Z,7.68
2023-02-07T04:03:18.325Z,7.88
2023-02-07T04:05:46.516Z,6.93
2023-02-07T04:08:15.628Z,7.18
2023-02-07T04:10:43.451Z,6.88
2023-02-07T04:13:11.252Z,7.20
2023-02-07T04:15:39.399Z,7.40
2023-02-07T04:18:07.326Z,6.68
2023-02-07T04:20:35.055Z,6.63
2023-02-07T04:23:02.780Z,7.50
2023-02-07T04:25:31.838Z,6.90
2023-02-07T04:27:59.668Z,7.40
2023-02-07T04:30:27.453Z,8.13
2023-02-07T04:32:55.239Z,7.53
2023-02-07T04:35:23.311Z,8.48
2023-02-07T04:37:51.060Z,7.47
2023-02-07T04:40:18.904Z,6.97
2023-02-07T04:42:48.042Z,7.60
2023-02-07T04:45:15.778Z,6.75
2023-02-07T04:47:43.763Z,7.47
2023-02-07T04:50:11.616Z,7.57
2023-02-07T04:52:41.332Z,8.15
2023-02-07T04:55:09.817Z,7.55
2023-02-07T04:57:37.594Z,8.90
2023-02-07T05:00:07.557Z,7.50
2023-02-07T05:02:35.340Z,8.50
2023-02-07T05:05:03.088Z,7.40
2023-02-07T05:07:30.854Z,7.32
2023-02-07T05:09:58.618Z,8.32
2023-02-07T05:12:26.471Z,9.13
2023-02-07T05:14:54.255Z,9.30
2023-02-07T05:17:23.404Z,8.10
2023-02-07T05:19:51.165Z,8.85
2023-02-07T05:22:18.970Z,8.73
2023-02-07T05:24:46.757Z,8.98
2023-02-07T05:27:14.503Z,7.60
2023-02-07T05:29:42.243Z,8.02
2023-02-07T05:32:30.056Z,7.90
2023-02-07T05:34:59.205Z,8.90
2023-02-07T05:37:27.282Z,9.73
2023-02-07T05:39:55.089Z,7.80
2023-02-07T05:42:22.898Z,8.32
2023-02-07T05:44:50.647Z,8.82
2023-02-07T05:47:18.426Z,9.57
2023-02-07T05:49:46.230Z,7.78
2023-02-07T05:52:15.511Z,9.15
2023-02-07T05:57:10.925Z,9.93
2023-02-07T05:59:38.704Z,8.57
2023-02-07T06:02:06.562Z,9.10
2023-02-07T06:04:34.405Z,9.52
2023-02-07T06:07:02.179Z,9.38
2023-02-07T06:09:31.297Z,9.35
2023-02-07T06:11:59.082Z,9.93
2023-02-07T06:14:26.955Z,9.05
2023-02-07T06:16:54.754Z,9.15
2023-02-07T06:19:22.556Z,9.60
2023-02-07T06:21:50.349Z,9.40
2023-02-07T06:24:18.244Z,8.20
2023-02-07T06:26:47.505Z,9.25
2023-02-07T06:31:43.717Z,8.07
2023-02-07T06:34:11.586Z,8.52
2023-02-07T06:36:39.315Z,10.05
2023-02-07T06:39:07.156Z,9.70
2023-02-07T06:41:34.909Z,10.57
2023-02-07T06:44:04.365Z,11.52
2023-02-07T06:46:32.424Z,9.68
2023-02-07T06:49:00.221Z,9.30
2023-02-07T06:51:28.015Z,9.98
2023-02-07T06:53:55.816Z,10.55
2023-02-07T06:56:23.625Z,9.70
2023-02-07T06:58:51.426Z,10.15
2023-02-07T07:01:22.328Z,10.43
2023-02-07T07:03:51.754Z,12.00
2023-02-07T07:06:19.676Z,10.07
2023-02-07T07:08:47.476Z,11.07
2023-02-07T07:11:15.254Z,12.13
2023-02-07T07:13:43.022Z,11.48
2023-02-07T07:16:10.862Z,12.40
2023-02-07T07:18:40.254Z,9.68
2023-02-07T07:21:08.118Z,9.25
2023-02-07T07:23:35.937Z,10.77
2023-02-07T07:26:03.847Z,10.63
2023-02-07T07:28:31.802Z,10.18
2023-02-07T07:31:04.346Z,9.65
2023-02-07T07:33:32.260Z,10.50
2023-02-07T07:36:02.417Z,9.88
2023-02-07T07:38:30.457Z,9.93
2023-02-07T07:40:58.229Z,10.05
2023-02-07T07:43:26.324Z,9.57
2023-02-07T07:45:56.830Z,8.10
2023-02-07T07:48:25.578Z,8.23
2023-02-07T07:50:53.851Z,7.38
2023-02-07T07:53:22.978Z,8.63
2023-02-07T07:55:51.722Z,7.15
2023-02-07T07:58:20.752Z,6.68
2023-02-07T08:00:49.003Z,6.05
2023-02-07T08:03:17.183Z,6.07
2023-02-07T08:05:46.004Z,6.10
2023-02-07T08:08:13.999Z,5.35
2023-02-07T08:10:43.940Z,5.70
2023-02-07T08:13:11.736Z,5.43
2023-02-07T08:15:40.267Z,5.00
2023-02-07T08:18:08.066Z,4.95
2023-02-07T08:20:36.336Z,5.22
2023-02-07T08:23:04.160Z,4.47
2023-02-07T08:25:31.971Z,4.80
2023-02-07T08:28:03.360Z,4.32
2023-02-07T08:30:32.203Z,4.30
2023-02-07T08:33:00.030Z,4.00
2023-02-07T08:35:28.038Z,5.20
2023-02-07T08:37:58.313Z,4.93
2023-02-07T08:40:26.752Z,5.20
2023-02-07T08:42:54.600Z,4.53
2023-02-07T08:45:23.823Z,3.60
2023-02-07T08:47:51.653Z,4.18
2023-02-07T08:50:20.092Z,4.18
2023-02-07T08:52:47.894Z,3.53
2023-02-07T08:55:15.685Z,3.58
2023-02-07T08:57:43.505Z,3.92
2023-02-07T09:00:12.798Z,3.92
2023-02-07T09:05:11.809Z,3.55
2023-02-07T09:07:39.858Z,3.75
2023-02-07T09:10:10.535Z,3.78
2023-02-07T09:12:38.929Z,4.15
2023-02-07T09:15:07.274Z,3.17
2023-02-07T09:17:35.145Z,4.07
2023-02-07T09:20:04.802Z,4.38
2023-02-07T09:22:33.142Z,6.32
2023-02-07T09:25:01.050Z,3.70
2023-02-07T09:27:28.970Z,4.25
2023-02-07T09:29:56.742Z,3.88
2023-02-07T09:32:24.577Z,3.63
2023-02-07T09:34:54.477Z,3.72
2023-02-07T09:37:23.619Z,3.20
2023-02-07T09:39:51.528Z,3.60
2023-02-07T09:42:26.865Z,3.30
2023-02-07T09:45:00.064Z,3.50
2023-02-07T09:47:28.179Z,3.03
2023-02-07T09:50:00.830Z,3.13
2023-02-07T09:52:34.649Z,3.17
2023-02-07T09:55:05.321Z,3.17
2023-02-07T09:57:38.496Z,3.33
2023-02-07T10:00:11.054Z,3.17
2023-02-07T10:02:42.981Z,3.35
2023-02-07T10:05:18.172Z,3.55
2023-02-07T10:07:48.915Z,3.40
2023-02-07T10:10:18.095Z,3.40
2023-02-07T10:13:08.524Z,3.20
2023-02-07T10:15:48.521Z,5.65
2023-02-07T10:18:35.007Z,4.65
2023-02-07T10:21:06.586Z,3.35
2023-02-07T10:23:51.475Z,4.55
2023-02-07T10:26:28.092Z,4.43
2023-02-07T10:29:11.453Z,3.80
2023-02-07T10:31:44.248Z,3.75
2023-02-07T10:34:15.537Z,3.67
2023-02-07T10:36:47.559Z,4.30
2023-02-07T10:39:24.380Z,3.85
2023-02-07T10:41:55.909Z,3.70
2023-02-07T10:44:24.504Z,3.78
2023-02-07T10:46:58.261Z,3.90
2023-02-07T10:49:27.875Z,3.70
2023-02-07T10:51:58.136Z,3.75
2023-02-07T10:54:27.317Z,3.55
2023-02-07T10:57:01.671Z,3.83
2023-02-07T10:59:38.655Z,3.95
2023-02-07T11:02:39.533Z,4.20
2023-02-07T11:05:28.875Z,3.55
2023-02-07T11:08:01.583Z,3.40
2023-02-07T11:10:35.009Z,3.92
2023-02-07T11:13:03.402Z,3.60
2023-02-07T11:15:38.855Z,4.03
2023-02-07T11:18:07.592Z,4.20
2023-02-07T11:20:38.687Z,3.83
2023-02-07T11:23:09.216Z,3.80
2023-02-07T11:25:42.415Z,3.40
2023-02-07T11:28:19.596Z,3.30
2023-02-07T11:30:47.854Z,3.65
2023-02-07T11:33:20.389Z,3.20
2023-02-07T11:36:07.503Z,3.17
2023-02-07T11:38:39.791Z,3.47
2023-02-07T11:41:18.022Z,3.50
2023-02-07T11:43:58.376Z,4.03
2023-02-07T11:46:34.898Z,3.30
2023-02-07T11:49:04.145Z,3.50
2023-02-07T11:51:33.605Z,3.40
2023-02-07T11:54:04.021Z,3.55
2023-02-07T11:56:38.376Z,3.50
2023-02-07T11:59:08.580Z,4.05
2023-02-07T12:01:37.788Z,3.65
2023-02-07T12:06:42.906Z,4.50
2023-02-07T12:09:32.028Z,4.38
2023-02-07T12:12:04.465Z,4.50
2023-02-07T12:14:37.504Z,4.65
2023-02-07T12:17:10.702Z,3.88
2023-02-07T12:19:45.993Z,4.18
2023-02-07T12:22:19.543Z,4.00
2023-02-07T12:24:54.849Z,3.97
2023-02-07T12:27:30.258Z,4.78
2023-02-07T12:30:03.912Z,4.70
2023-02-07T12:32:39.543Z,4.13
2023-02-07T12:35:17.224Z,4.30
2023-02-07T12:37:50.132Z,4.43
2023-02-07T12:40:25.868Z,4.82
2023-02-07T12:42:58.882Z,4.95
2023-02-07T12:45:42.929Z,4.80
2023-02-07T12:48:20.948Z,4.75
2023-02-07T12:51:02.818Z,4.78
2023-02-07T12:53:43.827Z,5.15
2023-02-07T12:56:26.384Z,4.88
2023-02-07T12:59:02.261Z,4.25
2023-02-07T13:01:38.007Z,4.57
2023-02-07T13:04:32.757Z,4.75
2023-02-07T13:07:15.188Z,4.07
2023-02-07T13:09:49.488Z,4.40
2023-02-07T13:12:23.521Z,4.75
2023-02-07T13:15:08.668Z,4.10
2023-02-07T13:17:46.923Z,4.70
2023-02-07T13:20:37.715Z,4.60
2023-02-07T13:23:11.454Z,4.10
2023-02-07T13:25:43.180Z,4.60
2023-02-07T13:28:19.245Z,4.72
2023-02-07T13:30:49.198Z,4.97
2023-02-07T13:33:28.395Z,4.60
2023-02-07T13:35:59.567Z,4.32
2023-02-07T13:38:41.773Z,4.60
2023-02-07T13:41:16.284Z,4.30
2023-02-07T13:44:09.803Z,4.70
2023-02-07T13:46:56.288Z,4.38
2023-02-07T13:49:38.108Z,4.00
2023-02-07T13:52:12.016Z,4.93
2023-02-07T13:54:45.947Z,4.20
2023-02-07T13:57:39.395Z,4.20
2023-02-07T14:00:16.524Z,4.32
2023-02-07T14:02:50.473Z,3.95
2023-02-07T14:05:27.713Z,4.05
2023-02-07T14:07:59.871Z,4.20
2023-02-07T14:10:40.316Z,4.03
2023-02-07T14:13:20.278Z,4.93
2023-02-07T14:15:58.898Z,4.03
2023-02-07T14:18:44.643Z,5.13
2023-02-07T14:21:32.570Z,4.30
2023-02-07T14:24:17.099Z,4.53
2023-02-07T14:26:57.413Z,4.18
2023-02-07T14:30:04.748Z,4.28
2023-02-07T14:32:40.601Z,4.47
2023-02-07T14:35:32.221Z,4.60
2023-02-07T14:38:13.643Z,4.55
2023-02-07T14:41:08.505Z,3.97
2023-02-07T14:44:06.391Z,4.20
2023-02-07T14:46:38.338Z,3.75
2023-02-07T14:49:08.024Z,5.13
2023-02-07T14:51:45.283Z,4.43
2023-02-07T14:54:19.372Z,3.60
2023-02-07T14:57:07.713Z,3.95
2023-02-07T14:59:40.232Z,3.90
2023-02-07T15:02:29.489Z,3.83
2023-02-07T15:07:26.431Z,3.88
2023-02-07T15:09:54.228Z,4.93
2023-02-07T15:12:28.120Z,4.07
2023-02-07T15:14:57.806Z,5.10
2023-02-07T15:17:39.328Z,5.30
2023-02-07T15:20:15.763Z,3.60
2023-02-07T15:22:49.648Z,3.95
2023-02-07T15:25:17.838Z,3.80
2023-02-07T15:28:00.432Z,3.38
2023-02-07T15:30:28.571Z,3.83
2023-02-07T15:32:56.457Z,3.00
2023-02-07T15:35:27.684Z,4.82
2023-02-07T15:38:17.121Z,5.53
2023-02-07T15:40:45.188Z,4.53
2023-02-07T15:43:26.494Z,4.30
2023-02-07T15:46:03.142Z,4.53
2023-02-07T15:48:31.441Z,5.40
2023-02-07T15:51:02.538Z,5.07
2023-02-07T15:53:32.463Z,4.57
2023-02-07T15:56:00.321Z,4.65
2023-02-07T15:58:32.845Z,4.13
2023-02-07T16:01:02.777Z,4.75
2023-02-07T16:03:32.756Z,4.60
2023-02-07T16:06:08.313Z,4.20
2023-02-07T16:08:41.232Z,6.47
2023-02-07T16:11:20.124Z,4.50
2023-02-07T16:13:50.678Z,4.70
2023-02-07T16:16:26.587Z,4.00
2023-02-07T16:19:06.774Z,4.22
2023-02-07T16:21:36.632Z,4.88
2023-02-07T16:24:10.155Z,4.13
2023-02-07T16:26:38.339Z,4.30
2023-02-07T16:29:07.148Z,4.20
2023-02-07T16:31:35.969Z,4.70
2023-02-07T16:34:03.822Z,3.83
2023-02-07T16:36:31.699Z,4.80
2023-02-07T16:38:59.613Z,3.88
2023-02-07T16:41:31.994Z,5.47
2023-02-07T16:44:00.610Z,6.20
2023-02-07T16:46:28.858Z,5.38
2023-02-07T16:48:56.699Z,7.10
2023-02-07T16:51:24.726Z,5.45
2023-02-07T16:53:52.764Z,4.13
2023-02-07T16:56:25.979Z,4.53
2023-02-07T16:58:55.180Z,4.70
2023-02-07T17:01:23.564Z,4.63
2023-02-07T17:03:51.394Z,4.25
2023-02-07T17:06:21.238Z,3.65
2023-02-07T17:08:51.861Z,6.25
2023-02-07T17:11:25.089Z,3.90
2023-02-07T17:13:53.103Z,4.55
2023-02-07T17:16:23.066Z,4.13
2023-02-07T17:18:51.652Z,4.38
2023-02-07T17:21:21.986Z,3.95
2023-02-07T17:23:49.810Z,5.57
2023-02-07T17:26:23.292Z,4.43
2023-02-07T17:28:51.300Z,4.35
2023-02-07T17:31:19.237Z,4.57
2023-02-07T17:33:48.986Z,4.07
2023-02-07T17:36:17.547Z,4.03
2023-02-07T17:38:45.585Z,4.15
2023-02-07T17:41:14.545Z,5.13
2023-02-07T17:43:42.558Z,4.88
2023-02-07T17:46:16.252Z,3.88
2023-02-07T17:48:43.996Z,4.78
2023-02-07T17:51:13.174Z,4.18
2023-02-07T17:53:40.972Z,4.22
2023-02-07T17:56:10.469Z,4.60
2023-02-07T17:58:38.263Z,5.00
2023-02-07T18:01:06.594Z,8.38
2023-02-07T18:03:34.416Z,8.57
2023-02-07T18:06:05.025Z,5.45
2023-02-07T18:08:34.193Z,4.70
2023-02-07T18:11:06.448Z,5.65
2023-02-07T18:13:34.500Z,8.25
2023-02-07T18:16:02.373Z,10.82
2023-02-07T18:18:30.219Z,7.90
2023-02-07T18:20:58.069Z,6.10
2023-02-07T18:23:25.865Z,6.53
2023-02-07T18:25:55.005Z,5.72
2023-02-07T18:28:22.935Z,6.25
2023-02-07T18:30:51.047Z,7.05
2023-02-07T18:33:20.030Z,6.65
2023-02-07T18:35:51.343Z,6.65
2023-02-07T18:38:19.121Z,6.70
2023-02-07T18:40:46.897Z,6.93
2023-02-07T18:43:16.000Z,7.43
2023-02-07T18:45:44.586Z,7.32
2023-02-07T18:48:12.388Z,7.55
2023-02-07T18:50:44.391Z,6.70
2023-02-07T18:53:12.212Z,6.25
2023-02-07T18:55:39.974Z,5.78
2023-02-07T18:58:07.778Z,6.15
2023-02-07T19:00:37.389Z,5.85
2023-02-07T19:03:05.468Z,5.85
2023-02-07T19:05:33.230Z,5.78
2023-02-07T19:08:01.008Z,10.32
2023-02-07T19:10:28.796Z,14.20
2023-02-07T19:12:56.647Z,8.75
2023-02-07T19:15:24.404Z,8.48
2023-02-07T19:17:53.531Z,6.57
2023-02-07T19:20:21.351Z,6.78
2023-02-07T19:22:52.597Z,6.85
2023-02-07T19:25:21.188Z,7.22
2023-02-07T19:27:49.025Z,8.75
2023-02-07T19:30:16.994Z,7.85
2023-02-07T19:32:44.826Z,6.90
2023-02-07T19:35:13.914Z,6.95
2023-02-07T19:37:41.721Z,7.10
2023-02-07T19:40:10.583Z,6.25
2023-02-07T19:42:38.535Z,5.70
2023-02-07T19:45:06.850Z,6.15
2023-02-07T19:47:34.646Z,6.57
2023-02-07T19:50:02.407Z,6.47
2023-02-07T19:52:31.509Z,6.78
2023-02-07T19:54:59.279Z,6.28
2023-02-07T19:57:27.261Z,6.40
2023-02-07T19:59:55.016Z,5.82
2023-02-07T20:02:22.864Z,6.05
2023-02-07T20:04:54.477Z,6.75
2023-02-07T20:07:22.358Z,6.40
2023-02-07T20:09:51.907Z,6.82
2023-02-07T20:12:19.740Z,6.78
2023-02-07T20:14:47.526Z,6.13
2023-02-07T20:17:15.291Z,8.23
2023-02-07T20:19:43.130Z,7.03
2023-02-07T20:22:11.022Z,7.07
2023-02-07T20:24:38.761Z,7.20
2023-02-07T20:27:07.974Z,7.65
2023-02-07T20:29:35.750Z,8.27
2023-02-07T20:32:03.546Z,7.88
2023-02-07T20:34:31.427Z,7.55
2023-02-07T20:36:59.364Z,7.68
2023-02-07T20:39:29.202Z,7.70
2023-02-07T20:41:57.000Z,8.27
2023-02-07T20:44:26.919Z,7.88
2023-02-07T20:46:56.036Z,7.93
2023-02-07T20:49:27.341Z,8.68
2023-02-07T20:51:56.838Z,8.15
2023-02-07T20:56:54.797Z,8.45
2023-02-07T20:59:24.423Z,9.70
2023-02-07T21:01:54.524Z,9.80
2023-02-07T21:04:23.121Z,9.63
2023-02-07T21:06:51.082Z,9.65
2023-02-07T21:09:19.009Z,8.48
2023-02-07T21:11:49.530Z,8.60
2023-02-07T21:14:19.310Z,8.88
2023-02-07T21:16:47.557Z,8.43
2023-02-07T21:19:18.514Z,8.70
2023-02-07T21:21:47.250Z,9.32
2023-02-07T21:24:15.349Z,10.05
2023-02-07T21:26:43.402Z,10.32
2023-02-07T21:29:12.571Z,32.42
2023-02-07T21:31:41.006Z,26.52
2023-02-07T21:34:09.656Z,22.60
2023-02-07T21:36:39.069Z,18.23
2023-02-07T21:41:38.524Z,14.23
2023-02-07T21:46:37.501Z,25.67
2023-02-07T21:49:08.347Z,20.30
2023-02-07T21:51:38.225Z,22.48
2023-02-07T21:54:07.293Z,21.20
2023-02-07T21:56:37.145Z,18.63
2023-02-07T21:59:06.490Z,17.25
2023-02-07T22:04:03.441Z,8.07
2023-02-07T22:06:31.508Z,8.63
2023-02-07T22:09:02.628Z,7.40
2023-02-07T22:11:32.460Z,6.65
2023-02-07T22:14:00.573Z,5.85
2023-02-07T22:16:30.297Z,5.88
2023-02-07T22:18:59.347Z,5.43
2023-02-07T22:21:29.350Z,7.10
2023-02-07T22:23:58.731Z,7.95
2023-02-07T22:28:57.048Z,7.70
2023-02-07T22:31:27.226Z,7.78
2023-02-07T22:33:56.686Z,6.53
2023-02-07T22:38:53.826Z,6.30
2023-02-07T22:41:22.705Z,6.43
2023-02-07T22:43:52.178Z,6.05
2023-02-07T22:46:22.655Z,6.20
2023-02-07T22:48:51.005Z,6.20
2023-02-07T22:51:20.712Z,6.20
2023-02-07T22:53:49.530Z,5.45
2023-02-07T22:56:17.633Z,4.88
2023-02-07T22:58:45.483Z,5.45
2023-02-07T23:01:22.064Z,5.43
2023-02-07T23:03:50.321Z,6.20
2023-02-07T23:06:18.811Z,5.82
2023-02-07T23:08:47.433Z,5.67
2023-02-07T23:11:17.297Z,5.88
2023-02-07T23:13:45.436Z,5.60
2023-02-07T23:16:14.003Z,5.75
2023-02-07T23:18:43.314Z,6.50
2023-02-07T23:23:40.101Z,7.22
2023-02-07T23:26:08.707Z,6.03
2023-02-07T23:28:37.231Z,6.38
2023-02-07T23:31:05.800Z,5.00
2023-02-07T23:33:33.875Z,5.32
2023-02-07T23:36:03.635Z,5.10
2023-02-07T23:38:31.920Z,5.00
2023-02-07T23:40:59.727Z,6.00
2023-02-07T23:43:27.944Z,5.10
2023-02-07T23:45:55.841Z,5.07
2023-02-07T23:48:23.763Z,4.72
2023-02-07T23:50:52.609Z,4.72
2023-02-07T23:53:22.274Z,4.20
2023-02-07T23:55:51.137Z,4.65
2023-02-07T23:58:19.002Z,4.78
